createdAt,value
2018-04-13T00:00:22.484Z,99.99
2018-04-13T00:01:22.472Z,99.99
2018-04-13T00:02:22.455Z,99.99
2018-04-13T00:03:22.441Z,99.99
2018-04-13T00:04:22.426Z,99.99
2018-04-13T00:05:22.421Z,99.99
2018-04-13T00:06:22.403Z,99.99
2018-04-13T00:07:22.387Z,99.99
2018-04-13T00:08:22.371Z,99.99
2018-04-13T00:09:22.358Z,99.99
2018-04-13T00:10:22.352Z,99.99
2018-04-13T00:11:22.336Z,99.99
2018-04-13T00:12:22.321Z,99.99
2018-04-13T00:13:22.308Z,99.99
2018-04-13T00:14:22.292Z,99.99
2018-04-13T00:15:22.276Z,99.99
2018-04-13T00:16:22.272Z,99.99
2018-04-13T00:17:22.248Z,99.99
2018-04-13T00:18:22.232Z,99.99
2018-04-13T00:19:22.222Z,99.99
2018-04-13T00:20:22.203Z,99.99
2018-04-13T00:21:22.192Z,99.99
2018-04-13T00:22:22.181Z,99.99
2018-04-13T00:23:22.162Z,99.99
2018-04-13T00:24:22.152Z,99.99
2018-04-13T00:25:22.141Z,99.99
2018-04-13T00:26:22.120Z,99.99
2018-04-13T00:27:22.102Z,99.99
2018-04-13T00:28:22.093Z,99.99
2018-04-13T00:29:22.077Z,99.99
2018-04-13T00:30:22.071Z,99.99
2018-04-13T00:31:22.052Z,99.99
2018-04-13T00:32:22.034Z,99.99
2018-04-13T00:33:22.027Z,99.99
2018-04-13T00:34:22.009Z,99.99
2018-04-13T00:35:21.993Z,99.99
2018-04-13T00:36:21.983Z,99.99
2018-04-13T00:37:21.964Z,99.99
2018-04-13T00:38:21.949Z,99.99
2018-04-13T00:39:21.944Z,99.99
2018-04-13T00:40:21.922Z,99.99
2018-04-13T00:41:21.913Z,99.99
2018-04-13T00:42:21.894Z,99.99
2018-04-13T00:43:21.885Z,99.99
2018-04-13T00:44:21.879Z,99.99
2018-04-13T00:45:21.853Z,99.99
2018-04-13T00:46:21.844Z,99.99
2018-04-13T00:47:21.825Z,99.99
2018-04-13T00:48:21.817Z,99.99
2018-04-13T00:49:21.800Z,99.99
2018-04-13T00:50:21.785Z,99.99
2018-04-13T00:51:21.775Z,99.99
2018-04-13T00:52:21.760Z,99.99
2018-04-13T00:53:21.737Z,99.99
2018-04-13T00:54:21.731Z,99.99
2018-04-13T00:55:21.718Z,99.99
2018-04-13T00:56:21.820Z,99.99
2018-04-13T00:57:21.680Z,99.99
2018-04-13T00:58:21.672Z,99.99
2018-04-13T00:59:21.655Z,99.99
2018-04-13T01:00:21.644Z,99.99
2018-04-13T01:01:21.628Z,99.99
2018-04-13T01:02:21.617Z,99.99
2018-04-13T01:03:21.605Z,99.99
2018-04-13T01:04:21.689Z,99.99
2018-04-13T01:05:21.572Z,99.99
2018-04-13T01:06:21.553Z,99.99
2018-04-13T01:07:21.552Z,99.99
2018-04-13T01:08:21.533Z,99.99
2018-04-13T01:09:21.522Z,99.99
2018-04-13T01:10:21.503Z,99.99
2018-04-13T01:11:21.490Z,99.99
2018-04-13T01:12:21.568Z,99.99
2018-04-13T01:13:21.451Z,99.99
2018-04-13T01:14:21.471Z,99.99
2018-04-13T01:15:21.423Z,99.99
2018-04-13T01:16:21.491Z,99.99
2018-04-13T01:17:21.403Z,99.99
2018-04-13T01:18:21.535Z,99.99
2018-04-13T01:19:21.372Z,99.99
2018-04-13T01:20:21.354Z,99.99
2018-04-13T01:21:21.343Z,99.99
2018-04-13T01:22:21.434Z,99.99
2018-04-13T01:23:21.315Z,99.99
2018-04-13T01:24:21.299Z,99.99
2018-04-13T01:25:21.282Z,99.99
2018-04-13T01:26:21.323Z,99.99
2018-04-13T01:27:21.265Z,99.99
2018-04-13T01:28:21.292Z,99.99
2018-04-13T01:29:21.242Z,99.99
2018-04-13T01:30:21.214Z,99.99
2018-04-13T01:31:21.195Z,99.99
2018-04-13T01:32:21.183Z,99.99
2018-04-13T01:33:21.168Z,99.99
2018-04-13T01:34:21.153Z,99.99
2018-04-13T01:35:21.139Z,99.99
2018-04-13T01:36:21.124Z,99.99
2018-04-13T01:37:21.110Z,99.99
2018-04-13T01:38:21.097Z,99.99
2018-04-13T01:39:21.085Z,99.99
2018-04-13T01:40:21.071Z,99.99
2018-04-13T01:41:21.057Z,99.99
2018-04-13T01:42:21.038Z,99.99
2018-04-13T01:43:21.024Z,99.99
2018-04-13T01:44:21.013Z,99.99
2018-04-13T01:45:21.003Z,99.99
2018-04-13T01:46:20.986Z,99.99
2018-04-13T01:47:20.973Z,99.99
2018-04-13T01:48:20.952Z,99.99
2018-04-13T01:49:20.936Z,99.99
2018-04-13T01:50:20.924Z,99.99
2018-04-13T01:51:20.914Z,99.99
2018-04-13T01:52:20.903Z,99.99
2018-04-13T01:53:20.881Z,99.99
2018-04-13T01:54:20.869Z,99.99
2018-04-13T01:55:20.851Z,99.99
2018-04-13T01:56:20.840Z,99.99
2018-04-13T01:57:20.823Z,99.99
2018-04-13T01:58:20.812Z,99.99
2018-04-13T01:59:20.793Z,99.99
2018-04-13T02:00:20.783Z,99.99
2018-04-13T02:01:20.773Z,99.99
2018-04-13T02:02:20.753Z,99.99
2018-04-13T02:03:20.743Z,99.99
2018-04-13T02:04:20.727Z,99.99
2018-04-13T02:05:20.713Z,99.99
2018-04-13T02:06:20.749Z,99.99
2018-04-13T02:07:20.679Z,99.99
2018-04-13T02:08:20.664Z,99.99
2018-04-13T02:09:20.650Z,99.99
2018-04-13T02:10:20.633Z,99.99
2018-04-13T02:11:20.619Z,99.99
2018-04-13T02:12:20.607Z,99.99
2018-04-13T02:13:20.597Z,99.99
2018-04-13T02:14:20.588Z,99.99
2018-04-13T02:15:20.563Z,99.99
2018-04-13T02:16:20.551Z,99.99
2018-04-13T02:17:20.540Z,99.99
2018-04-13T02:18:20.521Z,99.99
2018-04-13T02:19:20.505Z,99.99
2018-04-13T02:20:20.492Z,99.99
2018-04-13T02:21:20.478Z,99.99
2018-04-13T02:22:20.461Z,99.99
2018-04-13T02:23:20.448Z,99.99
2018-04-13T02:24:20.431Z,99.99
2018-04-13T02:25:20.417Z,99.99
2018-04-13T02:26:20.404Z,99.99
2018-04-13T02:27:20.386Z,99.99
2018-04-13T02:28:20.373Z,99.99
2018-04-13T02:29:20.366Z,99.99
2018-04-13T02:30:20.342Z,99.99
2018-04-13T02:31:20.327Z,99.99
2018-04-13T02:32:20.317Z,99.99
2018-04-13T02:33:20.300Z,99.99
2018-04-13T02:34:20.404Z,99.99
2018-04-13T02:35:20.272Z,99.99
2018-04-13T02:36:20.263Z,99.99
2018-04-13T02:37:20.242Z,99.99
2018-04-13T02:38:20.228Z,99.99
2018-04-13T02:39:20.222Z,99.99
2018-04-13T02:40:20.199Z,99.99
2018-04-13T02:41:20.193Z,99.99
2018-04-13T02:42:20.167Z,99.99
2018-04-13T02:43:20.152Z,99.99
2018-04-13T02:44:20.147Z,99.99
2018-04-13T02:45:20.123Z,99.99
2018-04-13T02:46:20.107Z,99.99
2018-04-13T02:47:20.187Z,99.99
2018-04-13T02:48:20.080Z,99.99
2018-04-13T02:49:20.063Z,99.99
2018-04-13T02:50:20.052Z,99.99
2018-04-13T02:51:20.041Z,99.99
2018-04-13T02:52:20.022Z,99.99
2018-04-13T02:53:20.024Z,99.99
2018-04-13T02:54:19.992Z,99.99
2018-04-13T02:55:20.060Z,99.99
2018-04-13T02:56:19.963Z,99.99
2018-04-13T02:57:19.997Z,99.99
2018-04-13T02:58:19.934Z,99.99
2018-04-13T02:59:20.012Z,99.99
2018-04-13T03:00:19.897Z,99.99
2018-04-13T03:01:19.931Z,99.99
2018-04-13T03:02:19.870Z,99.99
2018-04-13T03:03:19.862Z,99.99
2018-04-13T03:04:19.840Z,99.99
2018-04-13T03:05:19.921Z,99.99
2018-04-13T03:06:19.811Z,99.99
2018-04-13T03:07:19.886Z,99.99
2018-04-13T03:08:19.785Z,99.99
2018-04-13T03:09:19.760Z,99.99
2018-04-13T03:10:19.760Z,99.99
2018-04-13T03:11:19.732Z,99.99
2018-04-13T03:12:19.717Z,99.99
2018-04-13T03:13:19.700Z,99.99
2018-04-13T03:14:19.691Z,99.99
2018-04-13T03:15:19.676Z,99.99
2018-04-13T03:16:19.655Z,99.99
2018-04-13T03:17:19.643Z,99.99
2018-04-13T03:18:19.631Z,99.99
2018-04-13T03:19:19.613Z,99.99
2018-04-13T03:20:19.603Z,99.99
2018-04-13T03:21:19.583Z,99.99
2018-04-13T03:22:19.572Z,99.99
2018-04-13T03:23:19.547Z,99.99
2018-04-13T03:24:19.534Z,99.99
2018-04-13T03:25:19.522Z,99.99
2018-04-13T03:26:19.503Z,99.99
2018-04-13T03:27:19.493Z,99.99
2018-04-13T03:28:19.477Z,99.99
2018-04-13T03:29:19.460Z,99.99
2018-04-13T03:30:19.445Z,99.99
2018-04-13T03:31:19.428Z,99.99
2018-04-13T03:32:19.413Z,99.99
2018-04-13T03:33:19.397Z,99.99
2018-04-13T03:34:19.383Z,99.99
2018-04-13T03:35:19.366Z,99.99
2018-04-13T03:36:19.352Z,99.99
2018-04-13T03:37:19.333Z,99.99
2018-04-13T03:38:19.329Z,99.99
2018-04-13T03:39:19.306Z,99.99
2018-04-13T03:40:19.291Z,99.99
2018-04-13T03:41:19.277Z,99.99
2018-04-13T03:42:19.266Z,99.99
2018-04-13T03:43:19.249Z,99.99
2018-04-13T03:44:19.249Z,99.99
2018-04-13T03:45:19.218Z,99.99
2018-04-13T03:46:19.200Z,99.99
2018-04-13T03:47:19.187Z,99.99
2018-04-13T03:48:19.173Z,99.99
2018-04-13T03:49:19.150Z,99.99
2018-04-13T03:50:19.146Z,99.99
2018-04-13T03:51:19.124Z,99.99
2018-04-13T03:52:19.114Z,99.99
2018-04-13T03:53:19.091Z,99.99
2018-04-13T03:54:19.079Z,99.99
2018-04-13T03:55:19.062Z,99.99
2018-04-13T03:56:19.048Z,99.99
2018-04-13T03:57:19.031Z,99.99
2018-04-13T03:58:19.022Z,99.99
2018-04-13T03:59:19.002Z,99.99
2018-04-13T04:00:18.991Z,99.99
2018-04-13T04:01:18.972Z,99.99
2018-04-13T04:02:18.958Z,99.99
2018-04-13T04:03:18.946Z,99.99
2018-04-13T04:04:18.926Z,99.99
2018-04-13T04:05:18.913Z,99.99
2018-04-13T04:06:18.893Z,99.99
2018-04-13T04:07:18.879Z,99.99
2018-04-13T04:08:18.865Z,99.99
2018-04-13T04:09:18.847Z,99.99
2018-04-13T04:10:18.834Z,99.99
2018-04-13T04:11:18.816Z,99.99
2018-04-13T04:12:18.810Z,99.99
2018-04-13T04:13:18.788Z,99.99
2018-04-13T04:14:18.770Z,99.99
2018-04-13T04:15:18.752Z,99.99
2018-04-13T04:16:18.741Z,99.99
2018-04-13T04:17:18.723Z,99.99
2018-04-13T04:18:18.709Z,99.99
2018-04-13T04:19:18.691Z,99.99
2018-04-13T04:20:18.680Z,99.99
2018-04-13T04:21:18.667Z,99.99
2018-04-13T04:22:18.647Z,99.99
2018-04-13T04:23:18.631Z,99.99
2018-04-13T04:24:18.620Z,99.99
2018-04-13T04:25:18.601Z,99.99
2018-04-13T04:26:18.589Z,99.99
2018-04-13T04:27:18.573Z,99.99
2018-04-13T04:28:18.557Z,99.99
2018-04-13T04:29:18.542Z,99.99
2018-04-13T04:30:18.526Z,99.99
2018-04-13T04:31:18.513Z,99.99
2018-04-13T04:32:18.495Z,99.99
2018-04-13T04:33:18.526Z,99.99
2018-04-13T04:34:18.463Z,99.99
2018-04-13T04:35:18.449Z,99.99
2018-04-13T04:36:18.432Z,99.99
2018-04-13T04:37:18.421Z,99.99
2018-04-13T04:38:18.416Z,99.99
2018-04-13T04:39:18.394Z,99.99
2018-04-13T04:40:18.373Z,99.99
2018-04-13T04:41:18.360Z,99.99
2018-04-13T04:42:18.341Z,99.99
2018-04-13T04:43:18.325Z,99.99
2018-04-13T04:44:18.317Z,99.99
2018-04-13T04:45:18.294Z,99.99
2018-04-13T04:46:18.290Z,99.99
2018-04-13T04:47:18.272Z,99.99
2018-04-13T04:48:18.251Z,99.99
2018-04-13T04:49:18.238Z,99.99
2018-04-13T04:50:18.220Z,99.99
2018-04-13T04:51:18.210Z,99.99
2018-04-13T04:52:18.195Z,99.99
2018-04-13T04:53:18.179Z,99.99
2018-04-13T04:54:18.163Z,99.99
2018-04-13T04:55:18.142Z,99.99
2018-04-13T04:56:18.134Z,99.99
2018-04-13T04:57:18.113Z,99.99
2018-04-13T04:58:18.103Z,99.99
2018-04-13T04:59:18.090Z,99.99
2018-04-13T05:00:18.069Z,99.99
2018-04-13T05:01:18.060Z,99.99
2018-04-13T05:02:18.043Z,99.99
2018-04-13T05:03:18.033Z,99.99
2018-04-13T05:04:18.012Z,99.99
2018-04-13T05:05:17.993Z,99.99
2018-04-13T05:06:17.988Z,99.99
2018-04-13T05:07:17.962Z,99.99
2018-04-13T05:08:17.951Z,99.99
2018-04-13T05:09:17.945Z,99.99
2018-04-13T05:10:17.918Z,99.99
2018-04-13T05:11:17.900Z,99.99
2018-04-13T05:12:17.892Z,99.99
2018-04-13T05:13:17.872Z,99.99
2018-04-13T05:14:17.863Z,99.99
2018-04-13T05:15:17.837Z,99.99
2018-04-13T05:16:17.831Z,99.99
2018-04-13T05:17:17.816Z,99.99
2018-04-13T05:18:17.802Z,99.99
2018-04-13T05:19:17.782Z,99.99
2018-04-13T05:20:17.766Z,99.99
2018-04-13T05:21:17.751Z,99.99
2018-04-13T05:22:17.742Z,99.99
2018-04-13T05:23:17.721Z,99.99
2018-04-13T05:24:17.702Z,99.99
2018-04-13T05:25:17.695Z,99.99
2018-04-13T05:26:17.675Z,99.99
2018-04-13T05:27:17.663Z,99.99
2018-04-13T05:28:17.655Z,99.99
2018-04-13T05:29:17.660Z,99.99
2018-04-13T05:30:17.619Z,99.99
2018-04-13T05:31:17.607Z,99.99
2018-04-13T05:32:17.589Z,99.99
2018-04-13T05:33:17.574Z,99.99
2018-04-13T05:34:17.559Z,99.99
2018-04-13T05:35:17.623Z,99.99
2018-04-13T05:36:17.527Z,99.99
2018-04-13T05:37:17.518Z,99.99
2018-04-13T05:38:17.595Z,99.99
2018-04-13T05:39:17.494Z,99.99
2018-04-13T05:40:17.473Z,99.99
2018-04-13T05:41:17.450Z,99.99
2018-04-13T05:42:17.439Z,99.99
2018-04-13T05:43:17.423Z,99.99
2018-04-13T05:44:17.410Z,99.99
2018-04-13T05:45:17.394Z,99.99
2018-04-13T05:46:17.379Z,99.99
2018-04-13T05:47:17.362Z,99.99
2018-04-13T05:48:17.356Z,99.99
2018-04-13T05:49:17.338Z,99.99
2018-04-13T05:50:17.323Z,99.99
2018-04-13T05:51:17.305Z,99.99
2018-04-13T05:52:17.291Z,99.99
2018-04-13T05:53:17.278Z,99.99
2018-04-13T05:54:17.263Z,99.99
2018-04-13T05:55:17.243Z,99.99
2018-04-13T05:56:17.230Z,99.99
2018-04-13T05:57:17.222Z,99.99
2018-04-13T05:58:17.205Z,99.99
2018-04-13T05:59:17.192Z,99.99
2018-04-13T06:00:17.179Z,99.99
2018-04-13T06:01:17.162Z,99.99
2018-04-13T06:02:17.146Z,99.99
2018-04-13T06:03:17.135Z,99.99
2018-04-13T06:04:17.115Z,99.99
2018-04-13T06:05:17.108Z,99.99
2018-04-13T06:06:17.089Z,99.99
2018-04-13T06:07:17.075Z,99.99
2018-04-13T06:08:17.057Z,99.99
2018-04-13T06:09:17.043Z,99.99
2018-04-13T06:10:17.033Z,99.99
2018-04-13T06:11:17.035Z,99.99
2018-04-13T06:12:17.004Z,99.99
2018-04-13T06:13:16.989Z,99.99
2018-04-13T06:14:16.977Z,99.99
2018-04-13T06:15:16.967Z,99.99
2018-04-13T06:16:16.944Z,99.99
2018-04-13T06:17:16.931Z,99.99
2018-04-13T06:18:16.924Z,99.99
2018-04-13T06:19:16.905Z,99.99
2018-04-13T06:20:16.894Z,99.99
2018-04-13T06:21:16.885Z,99.99
2018-04-13T06:22:16.864Z,99.99
2018-04-13T06:23:16.855Z,99.99
2018-04-13T06:24:16.897Z,99.99
2018-04-13T06:25:16.822Z,99.99
2018-04-13T06:26:16.804Z,99.99
2018-04-13T06:27:16.804Z,99.99
2018-04-13T06:28:16.782Z,99.99
2018-04-13T06:29:16.764Z,99.99
2018-04-13T06:30:16.782Z,99.99
2018-04-13T06:31:16.736Z,99.99
2018-04-13T06:32:16.728Z,99.99
2018-04-13T06:33:16.706Z,99.99
2018-04-13T06:34:16.695Z,99.96
2018-04-13T06:35:16.693Z,99.48
2018-04-13T06:36:16.673Z,98.71
2018-04-13T06:37:16.725Z,98.33
2018-04-13T06:38:16.641Z,98.81
2018-04-13T06:39:16.648Z,98.81
2018-04-13T06:40:16.615Z,99.29
2018-04-13T06:41:16.609Z,99.77
2018-04-13T06:42:16.586Z,99.00
2018-04-13T06:43:16.569Z,98.62
2018-04-13T06:44:16.565Z,98.71
2018-04-13T06:45:16.560Z,98.43
2018-04-13T06:46:16.535Z,98.52
2018-04-13T06:47:16.515Z,98.43
2018-04-13T06:48:16.503Z,98.57
2018-04-13T06:49:16.506Z,98.28
2018-04-13T06:50:16.474Z,97.42
2018-04-13T06:51:16.462Z,97.33
2018-04-13T06:52:16.458Z,97.04
2018-04-13T06:53:16.434Z,97.14
2018-04-13T06:54:16.429Z,96.94
2018-04-13T06:55:16.411Z,96.56
2018-04-13T06:56:16.395Z,96.42
2018-04-13T06:57:16.387Z,96.22
2018-04-13T06:58:16.366Z,95.84
2018-04-13T06:59:16.359Z,95.84
2018-04-13T07:00:16.344Z,96.42
2018-04-13T07:01:16.359Z,95.98
2018-04-13T07:02:16.315Z,96.22
2018-04-13T07:03:16.306Z,95.89
2018-04-13T07:04:16.287Z,95.79
2018-04-13T07:05:16.273Z,96.47
2018-04-13T07:06:16.258Z,96.37
2018-04-13T07:07:16.247Z,96.18
2018-04-13T07:08:16.240Z,96.75
2018-04-13T07:09:16.224Z,96.94
2018-04-13T07:10:16.207Z,96.75
2018-04-13T07:11:16.195Z,96.47
2018-04-13T07:12:16.178Z,96.84
2018-04-13T07:13:16.171Z,96.56
2018-04-13T07:14:16.156Z,96.42
2018-04-13T07:15:16.146Z,95.94
2018-04-13T07:16:16.132Z,95.36
2018-04-13T07:17:16.116Z,94.93
2018-04-13T07:18:16.104Z,93.97
2018-04-13T07:19:16.153Z,94.02
2018-04-13T07:20:16.081Z,93.35
2018-04-13T07:21:16.076Z,93.15
2018-04-13T07:22:16.052Z,92.39
2018-04-13T07:23:16.046Z,92.58
2018-04-13T07:24:16.036Z,92.14
2018-04-13T07:25:16.022Z,91.09
2018-04-13T07:26:16.016Z,90.70
2018-04-13T07:27:16.005Z,90.17
2018-04-13T07:28:15.985Z,89.89
2018-04-13T07:29:15.986Z,89.12
2018-04-13T07:30:15.966Z,89.60
2018-04-13T07:31:15.958Z,89.31
2018-04-13T07:32:15.945Z,89.02
2018-04-13T07:33:15.936Z,89.31
2018-04-13T07:34:15.925Z,89.02
2018-04-13T07:35:16.118Z,89.36
2018-04-13T07:36:15.905Z,90.13
2018-04-13T07:37:16.174Z,90.03
2018-04-13T07:38:15.895Z,90.22
2018-04-13T07:39:15.901Z,89.79
2018-04-13T07:40:15.865Z,90.18
2018-04-13T07:41:15.855Z,90.37
2018-04-13T07:42:15.856Z,90.66
2018-04-13T07:43:15.836Z,90.75
2018-04-13T07:44:15.821Z,91.24
2018-04-13T07:45:15.810Z,91.77
2018-04-13T07:46:15.796Z,91.91
2018-04-13T07:47:15.782Z,92.10
2018-04-13T07:48:15.775Z,92.15
2018-04-13T07:49:15.766Z,92.44
2018-04-13T07:50:15.770Z,92.15
2018-04-13T07:51:15.743Z,92.54
2018-04-13T07:52:15.741Z,92.63
2018-04-13T07:53:15.726Z,93.30
2018-04-13T07:54:15.712Z,93.30
2018-04-13T07:55:15.695Z,93.30
2018-04-13T07:56:15.801Z,93.21
2018-04-13T07:57:15.676Z,93.21
2018-04-13T07:58:15.816Z,93.49
2018-04-13T07:59:15.666Z,93.73
2018-04-13T08:00:15.691Z,93.49
2018-04-13T08:01:15.636Z,93.30
2018-04-13T08:02:15.618Z,93.68
2018-04-13T08:03:15.606Z,93.49
2018-04-13T08:04:15.596Z,93.88
2018-04-13T08:05:15.589Z,93.40
2018-04-13T08:06:15.618Z,93.40
2018-04-13T08:07:15.565Z,93.40
2018-04-13T08:08:15.650Z,92.91
2018-04-13T08:09:15.536Z,93.30
2018-04-13T08:10:16.193Z,93.40
2018-04-13T08:11:15.511Z,93.30
2018-04-13T08:12:15.604Z,93.59
2018-04-13T08:13:15.485Z,93.35
2018-04-13T08:14:15.529Z,93.49
2018-04-13T08:15:15.462Z,93.49
2018-04-13T08:16:15.463Z,93.78
2018-04-13T08:17:15.437Z,93.78
2018-04-13T08:18:15.426Z,93.21
2018-04-13T08:19:15.415Z,93.49
2018-04-13T08:20:15.400Z,93.88
2018-04-13T08:21:15.393Z,93.21
2018-04-13T08:22:15.375Z,93.30
2018-04-13T08:23:15.417Z,93.40
2018-04-13T08:24:15.356Z,93.21
2018-04-13T08:25:15.347Z,93.59
2018-04-13T08:26:15.334Z,93.78
2018-04-13T08:27:15.315Z,93.59
2018-04-13T08:28:15.309Z,93.88
2018-04-13T08:29:15.295Z,93.49
2018-04-13T08:30:15.280Z,93.21
2018-04-13T08:31:15.276Z,93.49
2018-04-13T08:32:15.283Z,93.11
2018-04-13T08:33:15.264Z,93.78
2018-04-13T08:34:15.302Z,93.35
2018-04-13T08:35:15.226Z,93.06
2018-04-13T08:36:15.215Z,93.44
2018-04-13T08:37:15.196Z,93.44
2018-04-13T08:38:15.231Z,93.49
2018-04-13T08:39:15.203Z,93.44
2018-04-13T08:40:15.181Z,93.44
2018-04-13T08:41:15.154Z,93.54
2018-04-13T08:42:15.135Z,93.73
2018-04-13T08:43:15.152Z,93.63
2018-04-13T08:44:15.112Z,93.54
2018-04-13T08:45:15.095Z,93.25
2018-04-13T08:46:15.089Z,92.58
2018-04-13T08:47:15.082Z,92.58
2018-04-13T08:48:15.148Z,92.68
2018-04-13T08:49:15.185Z,92.77
2018-04-13T08:50:15.168Z,93.25
2018-04-13T08:51:15.059Z,92.58
2018-04-13T08:52:15.013Z,92.48
2018-04-13T08:53:15.007Z,92.44
2018-04-13T08:54:14.990Z,92.34
2018-04-13T08:55:14.973Z,92.29
2018-04-13T08:56:14.962Z,92.58
2018-04-13T08:57:14.955Z,92.77
2018-04-13T08:58:14.939Z,92.58
2018-04-13T08:59:14.930Z,92.58
2018-04-13T09:00:14.917Z,92.54
2018-04-13T09:01:14.900Z,92.24
2018-04-13T09:02:14.894Z,92.63
2018-04-13T09:03:14.871Z,92.72
2018-04-13T09:04:14.862Z,92.77
2018-04-13T09:05:14.850Z,92.68
2018-04-13T09:06:14.837Z,91.52
2018-04-13T09:07:14.841Z,91.72
2018-04-13T09:08:14.812Z,91.33
2018-04-13T09:09:14.809Z,91.24
2018-04-13T09:10:14.800Z,91.62
2018-04-13T09:11:14.781Z,90.85
2018-04-13T09:12:14.765Z,91.24
2018-04-13T09:13:14.758Z,91.33
2018-04-13T09:14:14.739Z,90.37
2018-04-13T09:15:14.736Z,90.08
2018-04-13T09:16:14.715Z,90.08
2018-04-13T09:17:14.701Z,90.08
2018-04-13T09:18:14.700Z,89.99
2018-04-13T09:19:14.684Z,89.32
2018-04-13T09:20:14.664Z,88.98
2018-04-13T09:21:14.653Z,86.96
2018-04-13T09:22:14.645Z,86.48
2018-04-13T09:23:14.680Z,85.57
2018-04-13T09:24:14.620Z,85.18
2018-04-13T09:25:14.616Z,84.89
2018-04-13T09:26:14.597Z,84.94
2018-04-13T09:27:14.589Z,83.74
2018-04-13T09:28:14.571Z,82.68
2018-04-13T09:29:14.559Z,81.67
2018-04-13T09:30:14.552Z,81.09
2018-04-13T09:31:14.548Z,81.19
2018-04-13T09:32:14.524Z,79.65
2018-04-13T09:33:14.515Z,80.42
2018-04-13T09:34:14.503Z,80.61
2018-04-13T09:35:14.541Z,80.61
2018-04-13T09:36:14.480Z,80.99
2018-04-13T09:37:14.472Z,80.13
2018-04-13T09:38:14.454Z,80.13
2018-04-13T09:39:14.445Z,80.13
2018-04-13T09:40:14.445Z,80.61
2018-04-13T09:41:14.425Z,79.65
2018-04-13T09:42:14.409Z,79.36
2018-04-13T09:43:14.402Z,80.99
2018-04-13T09:44:14.386Z,79.55
2018-04-13T09:45:14.379Z,79.94
2018-04-13T09:46:14.364Z,79.84
2018-04-13T09:47:14.354Z,78.53
2018-04-13T09:48:14.342Z,77.19
2018-04-13T09:49:14.350Z,77.96
2018-04-13T09:50:14.327Z,77.29
2018-04-13T09:51:14.308Z,77.67
2018-04-13T09:52:14.296Z,78.06
2018-04-13T09:54:14.274Z,78.83
2018-04-13T09:55:14.264Z,78.83
2018-04-13T09:56:14.252Z,78.73
2018-04-13T09:57:14.297Z,79.50
2018-04-13T09:58:14.237Z,79.69
2018-04-13T09:59:14.223Z,76.32
2018-04-13T10:00:14.216Z,77.48
2018-04-13T10:01:14.205Z,77.00
2018-04-13T10:02:14.203Z,76.42
2018-04-13T10:03:14.183Z,77.00
2018-04-13T10:04:14.175Z,76.52
2018-04-13T10:05:14.170Z,77.09
2018-04-13T10:06:14.259Z,78.67
2018-04-13T10:07:14.135Z,76.52
2018-04-13T10:08:14.221Z,77.29
2018-04-13T10:09:14.115Z,78.25
2018-04-13T10:10:14.211Z,77.73
2018-04-13T10:11:14.091Z,78.78
2018-04-13T10:12:14.091Z,79.36
2018-04-13T10:13:14.070Z,78.15
2018-04-13T10:14:14.128Z,78.69
2018-04-13T10:15:14.053Z,77.34
2018-04-13T10:16:14.096Z,78.50
2018-04-13T10:17:14.028Z,76.29
2018-04-13T10:18:14.028Z,76.19
2018-04-13T10:19:14.010Z,76.19
2018-04-13T10:20:13.992Z,76.96
2018-04-13T10:21:13.984Z,76.32
2018-04-13T10:22:13.972Z,77.73
2018-04-13T10:23:13.963Z,77.92
2018-04-13T10:24:13.953Z,79.07
2018-04-13T10:25:13.942Z,76.96
2018-04-13T10:26:13.927Z,77.15
2018-04-13T10:27:13.924Z,77.44
2018-04-13T10:28:13.908Z,76.48
2018-04-13T10:29:13.897Z,77.15
2018-04-13T10:30:13.887Z,77.34
2018-04-13T10:31:13.874Z,75.71
2018-04-13T10:32:13.865Z,75.42
2018-04-13T10:33:13.851Z,76.77
2018-04-13T10:34:13.848Z,76.77
2018-04-13T10:35:13.826Z,77.44
2018-04-13T10:36:13.822Z,76.77
2018-04-13T10:37:13.812Z,76.29
2018-04-13T10:38:13.796Z,78.88
2018-04-13T10:39:13.785Z,80.22
2018-04-13T10:40:13.777Z,77.63
2018-04-13T10:41:13.763Z,76.57
2018-04-13T10:42:13.749Z,77.92
2018-04-13T10:43:13.745Z,77.34
2018-04-13T10:44:13.725Z,77.34
2018-04-13T10:45:13.717Z,77.86
2018-04-13T10:46:13.713Z,76.42
2018-04-13T10:47:13.693Z,74.79
2018-04-13T10:48:13.688Z,76.32
2018-04-13T10:49:13.670Z,76.42
2018-04-13T10:50:13.658Z,76.04
2018-04-13T10:51:13.649Z,75.84
2018-04-13T10:52:13.635Z,77.67
2018-04-13T10:53:13.627Z,77.09
2018-04-13T10:54:13.617Z,77.96
2018-04-13T10:55:13.604Z,77.29
2018-04-13T10:56:13.594Z,76.14
2018-04-13T10:57:13.582Z,76.42
2018-04-13T10:58:13.576Z,74.98
2018-04-13T10:59:13.563Z,74.88
2018-04-13T11:00:13.558Z,72.48
2018-04-13T11:01:13.545Z,72.48
2018-04-13T11:02:13.522Z,73.44
2018-04-13T11:03:13.514Z,73.63
2018-04-13T11:04:13.505Z,70.65
2018-04-13T11:05:13.492Z,71.14
2018-04-13T11:06:13.492Z,71.08
2018-04-13T11:07:13.473Z,68.67
2018-04-13T11:08:13.460Z,70.27
2018-04-13T11:09:13.453Z,70.17
2018-04-13T11:10:13.485Z,68.83
2018-04-13T11:11:13.429Z,68.92
2018-04-13T11:12:13.425Z,68.35
2018-04-13T11:13:13.403Z,70.37
2018-04-13T11:14:13.392Z,68.63
2018-04-13T11:15:13.383Z,69.79
2018-04-13T11:16:13.372Z,70.07
2018-04-13T11:17:13.373Z,71.04
2018-04-13T11:18:13.350Z,70.46
2018-04-13T11:19:13.339Z,71.14
2018-04-13T11:20:13.333Z,70.46
2018-04-13T11:21:13.365Z,68.73
2018-04-13T11:22:13.309Z,68.35
2018-04-13T11:23:13.295Z,68.63
2018-04-13T11:24:13.281Z,69.21
2018-04-13T11:25:13.319Z,69.12
2018-04-13T11:26:13.263Z,68.15
2018-04-13T11:27:13.252Z,67.77
2018-04-13T11:28:13.254Z,67.00
2018-04-13T11:29:13.228Z,65.94
2018-04-13T11:30:13.210Z,66.14
2018-04-13T11:31:13.202Z,65.84
2018-04-13T11:32:13.199Z,66.42
2018-04-13T11:33:13.184Z,66.33
2018-04-13T11:34:13.170Z,66.33
2018-04-13T11:35:13.155Z,66.14
2018-04-13T11:36:13.147Z,66.14
2018-04-13T11:37:13.141Z,65.23
2018-04-13T11:38:13.131Z,65.43
2018-04-13T11:39:13.111Z,65.72
2018-04-13T11:40:13.103Z,65.91
2018-04-13T11:41:13.096Z,66.30
2018-04-13T11:42:13.083Z,65.53
2018-04-13T11:43:13.071Z,64.56
2018-04-13T11:44:13.052Z,63.02
2018-04-13T11:45:13.052Z,64.37
2018-04-13T11:46:13.042Z,63.60
2018-04-13T11:47:13.023Z,63.32
2018-04-13T11:48:13.013Z,63.41
2018-04-13T11:49:13.014Z,64.56
2018-04-13T11:50:12.996Z,63.41
2018-04-13T11:51:12.981Z,64.56
2018-04-13T11:52:12.961Z,64.37
2018-04-13T11:53:12.954Z,64.28
2018-04-13T11:54:12.939Z,64.18
2018-04-13T11:55:12.931Z,64.53
2018-04-13T11:56:12.919Z,64.85
2018-04-13T11:57:12.907Z,64.85
2018-04-13T11:58:12.894Z,64.37
2018-04-13T11:59:12.885Z,65.43
2018-04-13T12:00:12.871Z,64.37
2018-04-13T12:01:12.861Z,65.43
2018-04-13T12:02:12.854Z,65.40
2018-04-13T12:03:12.839Z,65.78
2018-04-13T12:04:12.830Z,66.16
2018-04-13T12:05:12.818Z,65.49
2018-04-13T12:06:12.814Z,66.26
2018-04-13T12:07:12.792Z,66.46
2018-04-13T12:08:12.784Z,67.32
2018-04-13T12:09:12.771Z,67.41
2018-04-13T12:10:12.758Z,68.76
2018-04-13T12:11:12.743Z,69.05
2018-04-13T12:12:12.738Z,69.05
2018-04-13T12:13:12.727Z,69.24
2018-04-13T12:14:12.708Z,69.72
2018-04-13T12:15:12.697Z,69.62
2018-04-13T12:16:12.686Z,69.91
2018-04-13T12:17:12.670Z,70.10
2018-04-13T12:18:12.719Z,70.45
2018-04-13T12:19:12.649Z,70.17
2018-04-13T12:20:12.639Z,70.74
2018-04-13T12:21:12.623Z,70.93
2018-04-13T12:22:12.634Z,71.22
2018-04-13T12:23:12.618Z,70.84
2018-04-13T12:24:12.588Z,70.93
2018-04-13T12:25:12.578Z,70.93
2018-04-13T12:26:12.562Z,71.03
2018-04-13T12:27:12.545Z,72.56
2018-04-13T12:28:12.540Z,70.64
2018-04-13T12:29:12.529Z,71.41
2018-04-13T12:30:12.511Z,71.31
2018-04-13T12:31:12.500Z,71.03
2018-04-13T12:32:12.491Z,70.74
2018-04-13T12:33:12.480Z,70.55
2018-04-13T12:34:12.465Z,70.99
2018-04-13T12:35:12.453Z,71.98
2018-04-13T12:36:12.436Z,71.41
2018-04-13T12:37:12.424Z,71.98
2018-04-13T12:38:12.422Z,72.18
2018-04-13T12:39:12.410Z,72.63
2018-04-13T12:40:12.389Z,72.37
2018-04-13T12:41:12.377Z,71.95
2018-04-13T12:42:12.368Z,72.18
2018-04-13T12:43:12.361Z,72.63
2018-04-13T12:44:12.345Z,73.52
2018-04-13T12:45:12.330Z,72.91
2018-04-13T12:46:12.313Z,73.58
2018-04-13T12:47:12.303Z,73.68
2018-04-13T12:48:12.290Z,74.48
2018-04-13T12:49:12.284Z,75.06
2018-04-13T12:50:12.269Z,75.06
2018-04-13T12:51:12.254Z,74.64
2018-04-13T12:52:12.244Z,75.98
2018-04-13T12:53:12.231Z,75.79